sensor_id;sensor_type;location;lat;lon;timestamp;pressure;altitude;pressure_sealevel;temperature;humidity
82784;BME280;72520;55.762;37.780;2024-02-26T00:01:54;101117.50;;;-0.69;54.67
82784;BME280;72520;55.762;37.780;2024-02-26T00:04:58;101120.09;;;-0.69;55.13
82784;BME280;72520;55.762;37.780;2024-02-26T00:08:06;101125.31;;;-0.71;54.99
82784;BME280;72520;55.762;37.780;2024-02-26T00:11:08;101105.28;;;-0.70;54.80
82784;BME280;72520;55.762;37.780;2024-02-26T00:14:13;101110.50;;;-0.64;54.56
82784;BME280;72520;55.762;37.780;2024-02-26T00:17:15;101095.69;;;-0.70;55.25
82784;BME280;72520;55.762;37.780;2024-02-26T00:20:18;101102.66;;;-0.73;55.01
82784;BME280;72520;55.762;37.780;2024-02-26T00:23:22;101108.75;;;-0.80;55.35
82784;BME280;72520;55.762;37.780;2024-02-26T00:26:24;101103.53;;;-0.77;55.55
82784;BME280;72520;55.762;37.780;2024-02-26T00:29:26;101099.19;;;-0.75;55.06
82784;BME280;72520;55.762;37.780;2024-02-26T00:32:32;101100.91;;;-0.77;55.41
82784;BME280;72520;55.762;37.780;2024-02-26T00:35:37;101110.50;;;-0.79;55.83
82784;BME280;72520;55.762;37.780;2024-02-26T00:38:40;101113.97;;;-0.86;55.05
82784;BME280;72520;55.762;37.780;2024-02-26T00:41:46;101117.44;;;-0.96;55.25
82784;BME280;72520;55.762;37.780;2024-02-26T00:44:48;101107.00;;;-0.96;55.43
82784;BME280;72520;55.762;37.780;2024-02-26T00:47:52;101102.63;;;-0.94;55.74
82784;BME280;72520;55.762;37.780;2024-02-26T00:50:57;101096.53;;;-0.93;55.78
82784;BME280;72520;55.762;37.780;2024-02-26T00:54:00;101100.03;;;-0.96;56.06
82784;BME280;72520;55.762;37.780;2024-02-26T00:57:03;101095.69;;;-0.92;55.94
82784;BME280;72520;55.762;37.780;2024-02-26T01:00:06;101095.66;;;-0.91;55.48
82784;BME280;72520;55.762;37.780;2024-02-26T01:03:10;101094.75;;;-1.05;55.54
82784;BME280;72520;55.762;37.780;2024-02-26T01:06:12;101086.03;;;-1.09;56.10
82784;BME280;72520;55.762;37.780;2024-02-26T01:09:28;101088.69;;;-1.01;56.15
82784;BME280;72520;55.762;37.780;2024-02-26T01:12:32;101096.56;;;-0.92;55.32
82784;BME280;72520;55.762;37.780;2024-02-26T01:15:38;101094.78;;;-1.00;54.91
82784;BME280;72520;55.762;37.780;2024-02-26T01:18:40;101096.53;;;-1.02;55.86
82784;BME280;72520;55.762;37.780;2024-02-26T01:21:42;101099.16;;;-1.02;55.95
82784;BME280;72520;55.762;37.780;2024-02-26T01:24:52;101092.16;;;-1.05;55.92
82784;BME280;72520;55.762;37.780;2024-02-26T01:27:59;101092.16;;;-1.08;55.54
82784;BME280;72520;55.762;37.780;2024-02-26T01:31:11;101088.66;;;-1.16;56.14
82784;BME280;72520;55.762;37.780;2024-02-26T01:34:14;101088.66;;;-1.12;56.01
82784;BME280;72520;55.762;37.780;2024-02-26T01:37:19;101093.91;;;-1.13;55.97
82784;BME280;72520;55.762;37.780;2024-02-26T01:40:22;101090.38;;;-1.15;55.85
82784;BME280;72520;55.762;37.780;2024-02-26T01:43:25;101093.88;;;-1.15;56.16
82784;BME280;72520;55.762;37.780;2024-02-26T01:46:28;101098.25;;;-1.05;56.10
82784;BME280;72520;55.762;37.780;2024-02-26T01:49:30;101091.28;;;-1.09;55.40
82784;BME280;72520;55.762;37.780;2024-02-26T01:52:33;101086.91;;;-1.11;55.61
82784;BME280;72520;55.762;37.780;2024-02-26T01:55:37;101076.44;;;-1.19;56.06
82784;BME280;72520;55.762;37.780;2024-02-26T01:58:42;101089.56;;;-1.07;56.12
82784;BME280;72520;55.762;37.780;2024-02-26T02:01:47;101079.09;;;-1.07;55.07
82784;BME280;72520;55.762;37.780;2024-02-26T02:04:51;101079.09;;;-1.07;55.97
82784;BME280;72520;55.762;37.780;2024-02-26T02:07:54;101071.22;;;-1.22;55.80
82784;BME280;72520;55.762;37.780;2024-02-26T02:10:58;101076.50;;;-1.10;55.88
82784;BME280;72520;55.762;37.780;2024-02-26T02:14:03;101077.34;;;-1.17;55.96
82784;BME280;72520;55.762;37.780;2024-02-26T02:17:07;101075.59;;;-1.21;55.54
82784;BME280;72520;55.762;37.780;2024-02-26T02:20:15;101073.84;;;-1.11;55.76
82784;BME280;72520;55.762;37.780;2024-02-26T02:23:19;101078.22;;;-1.04;55.95
82784;BME280;72520;55.762;37.780;2024-02-26T02:29:42;101067.78;;;-1.16;56.06
82784;BME280;72520;55.762;37.780;2024-02-26T02:33:10;101072.97;;;-1.15;55.38
82784;BME280;72520;55.762;37.780;2024-02-26T02:36:13;101069.50;;;-1.18;55.33
82784;BME280;72520;55.762;37.780;2024-02-26T02:39:17;101066.88;;;-1.21;55.59
82784;BME280;72520;55.762;37.780;2024-02-26T02:42:22;101064.22;;;-1.29;55.51
82784;BME280;72520;55.762;37.780;2024-02-26T02:45:26;101073.81;;;-1.28;55.93
82784;BME280;72520;55.762;37.780;2024-02-26T02:48:29;101065.09;;;-1.37;55.98
82784;BME280;72520;55.762;37.780;2024-02-26T02:51:33;101072.03;;;-1.41;56.69
82784;BME280;72520;55.762;37.780;2024-02-26T02:54:36;101068.59;;;-1.37;56.16
82784;BME280;72520;55.762;37.780;2024-02-26T02:57:43;101069.47;;;-1.30;56.00
82784;BME280;72520;55.762;37.780;2024-02-26T03:00:46;101067.75;;;-1.24;56.07
82784;BME280;72520;55.762;37.780;2024-02-26T03:03:48;101068.59;;;-1.22;55.60
82784;BME280;72520;55.762;37.780;2024-02-26T03:06:50;101064.28;;;-1.23;56.29
82784;BME280;72520;55.762;37.780;2024-02-26T03:09:54;101067.72;;;-1.34;55.74
82784;BME280;72520;55.762;37.780;2024-02-26T03:12:57;101063.38;;;-1.22;55.92
82784;BME280;72520;55.762;37.780;2024-02-26T03:16:04;101064.25;;;-1.36;55.92
82784;BME280;72520;55.762;37.780;2024-02-26T03:19:06;101060.75;;;-1.31;55.78
82784;BME280;72520;55.762;37.780;2024-02-26T03:22:11;101065.13;;;-1.27;55.53
82784;BME280;72520;55.762;37.780;2024-02-26T03:25:15;101065.97;;;-1.34;56.05
82784;BME280;72520;55.762;37.780;2024-02-26T03:28:21;101056.41;;;-1.36;56.08
82784;BME280;72520;55.762;37.780;2024-02-26T03:31:25;101060.75;;;-1.37;56.30
82784;BME280;72520;55.762;37.780;2024-02-26T03:34:28;101058.09;;;-1.46;55.69
82784;BME280;72520;55.762;37.780;2024-02-26T03:37:33;101055.47;;;-1.46;56.23
82784;BME280;72520;55.762;37.780;2024-02-26T03:40:39;101061.59;;;-1.47;56.05
82784;BME280;72520;55.762;37.780;2024-02-26T03:43:44;101059.84;;;-1.48;56.66
82784;BME280;72520;55.762;37.780;2024-02-26T03:46:49;101063.31;;;-1.49;56.37
82784;BME280;72520;55.762;37.780;2024-02-26T03:49:51;101065.94;;;-1.47;55.72
82784;BME280;72520;55.762;37.780;2024-02-26T03:52:53;101065.94;;;-1.47;56.30
82784;BME280;72520;55.762;37.780;2024-02-26T03:55:57;101066.81;;;-1.47;56.10
82784;BME280;72520;55.762;37.780;2024-02-26T03:58:59;101056.38;;;-1.50;56.42
82784;BME280;72520;55.762;37.780;2024-02-26T04:02:06;101060.66;;;-1.60;56.38
82784;BME280;72520;55.762;37.780;2024-02-26T04:05:12;101067.63;;;-1.62;56.67
82784;BME280;72520;55.762;37.780;2024-02-26T04:08:15;101063.28;;;-1.64;57.06
82784;BME280;72520;55.762;37.780;2024-02-26T04:11:18;101064.09;;;-1.67;56.39
82784;BME280;72520;55.762;37.780;2024-02-26T04:14:21;101055.34;;;-1.79;56.73
82784;BME280;72520;55.762;37.780;2024-02-26T04:17:23;101058.88;;;-1.71;57.43
82784;BME280;72520;55.762;37.780;2024-02-26T04:20:26;101058.88;;;-1.77;57.30
82784;BME280;72520;55.762;37.780;2024-02-26T04:23:30;101061.41;;;-1.83;57.65
82784;BME280;72520;55.762;37.780;2024-02-26T04:26:34;101070.13;;;-1.83;57.52
82784;BME280;72520;55.762;37.780;2024-02-26T04:29:39;101069.25;;;-1.88;57.48
82784;BME280;72520;55.762;37.780;2024-02-26T04:32:41;101070.94;;;-1.93;57.87
82784;BME280;72520;55.762;37.780;2024-02-26T04:35:45;101076.19;;;-1.91;58.16
82784;BME280;72520;55.762;37.780;2024-02-26T04:42:09;101069.22;;;-1.89;57.66
82784;BME280;72520;55.762;37.780;2024-02-26T04:45:17;101071.00;;;-1.82;57.44
82784;BME280;72520;55.762;37.780;2024-02-26T04:48:19;101072.72;;;-1.87;57.96
82784;BME280;72520;55.762;37.780;2024-02-26T04:51:25;101075.31;;;-1.92;57.97
82784;BME280;72520;55.762;37.780;2024-02-26T04:54:27;101077.03;;;-1.92;58.03
82784;BME280;72520;55.762;37.780;2024-02-26T04:57:30;101072.75;;;-1.78;57.96
82784;BME280;72520;55.762;37.780;2024-02-26T05:00:33;101057.09;;;-1.77;57.87
82784;BME280;72520;55.762;37.780;2024-02-26T05:03:35;101064.00;;;-1.94;58.37
82784;BME280;72520;55.762;37.780;2024-02-26T05:06:38;101061.41;;;-1.83;58.40
82784;BME280;72520;55.762;37.780;2024-02-26T05:09:40;101056.25;;;-1.77;58.38
82784;BME280;72520;55.762;37.780;2024-02-26T05:12:44;101064.00;;;-1.89;58.73
82784;BME280;72520;55.762;37.780;2024-02-26T05:15:46;101062.25;;;-1.92;58.64
82784;BME280;72520;55.762;37.780;2024-02-26T05:18:50;101050.97;;;-1.86;59.06
82784;BME280;72520;55.762;37.780;2024-02-26T05:21:55;101051.88;;;-1.81;58.77
82784;BME280;72520;55.762;37.780;2024-02-26T05:24:58;101065.75;;;-1.91;58.91
82784;BME280;72520;55.762;37.780;2024-02-26T05:28:01;101064.00;;;-1.92;58.82
82784;BME280;72520;55.762;37.780;2024-02-26T05:31:04;101071.81;;;-1.92;59.00
82784;BME280;72520;55.762;37.780;2024-02-26T05:34:09;101064.03;;;-1.91;59.22
82784;BME280;72520;55.762;37.780;2024-02-26T05:37:12;101063.13;;;-1.91;59.30
82784;BME280;72520;55.762;37.780;2024-02-26T05:40:14;101059.69;;;-1.87;59.24
82784;BME280;72520;55.762;37.780;2024-02-26T05:43:36;101064.94;;;-1.75;58.91
82784;BME280;72520;55.762;37.780;2024-02-26T05:46:41;101067.59;;;-1.68;58.72
82784;BME280;72520;55.762;37.780;2024-02-26T05:49:46;101044.03;;;-1.87;58.99
82784;BME280;72520;55.762;37.780;2024-02-26T05:52:49;101062.31;;;-1.78;59.05
82784;BME280;72520;55.762;37.780;2024-02-26T05:55:51;101064.94;;;-1.78;58.59
82784;BME280;72520;55.762;37.780;2024-02-26T05:58:55;101048.41;;;-1.76;59.45
82784;BME280;72520;55.762;37.780;2024-02-26T06:01:57;101069.38;;;-1.64;58.92
82784;BME280;72520;55.762;37.780;2024-02-26T06:05:03;101053.66;;;-1.67;58.70
82784;BME280;72520;55.762;37.780;2024-02-26T06:08:08;101055.38;;;-1.76;59.20
82784;BME280;72520;55.762;37.780;2024-02-26T06:11:11;101062.38;;;-1.63;59.16
82784;BME280;72520;55.762;37.780;2024-02-26T06:14:17;101065.00;;;-1.59;59.09
82784;BME280;72520;55.762;37.780;2024-02-26T06:17:23;101068.50;;;-1.55;58.78
82784;BME280;72520;55.762;37.780;2024-02-26T06:20:27;101072.03;;;-1.50;59.19
82784;BME280;72520;55.762;37.780;2024-02-26T06:23:32;101078.09;;;-1.57;59.17
82784;BME280;72520;55.762;37.780;2024-02-26T06:26:35;101075.44;;;-1.63;58.71
82784;BME280;72520;55.762;37.780;2024-02-26T06:29:41;101061.53;;;-1.61;59.57
82784;BME280;72520;55.762;37.780;2024-02-26T06:32:43;101070.22;;;-1.65;59.18
82784;BME280;72520;55.762;37.780;2024-02-26T06:35:48;101060.66;;;-1.61;58.91
82784;BME280;72520;55.762;37.780;2024-02-26T06:38:53;101065.91;;;-1.58;59.27
82784;BME280;72520;55.762;37.780;2024-02-26T06:41:55;101061.56;;;-1.55;59.13
82784;BME280;72520;55.762;37.780;2024-02-26T06:45:04;101058.94;;;-1.51;59.22
82784;BME280;72520;55.762;37.780;2024-02-26T06:48:08;101054.59;;;-1.51;59.03
82784;BME280;72520;55.762;37.780;2024-02-26T06:51:13;101060.75;;;-1.40;59.15
82784;BME280;72520;55.762;37.780;2024-02-26T06:54:15;101072.84;;;-1.62;59.46
82784;BME280;72520;55.762;37.780;2024-02-26T06:57:17;101069.38;;;-1.56;59.33
82784;BME280;72520;55.762;37.780;2024-02-26T07:00:23;101066.75;;;-1.56;59.09
82784;BME280;72520;55.762;37.780;2024-02-26T07:03:25;101074.59;;;-1.64;59.63
82784;BME280;72520;55.762;37.780;2024-02-26T07:06:28;101065.03;;;-1.49;59.21
82784;BME280;72520;55.762;37.780;2024-02-26T07:09:32;101081.56;;;-1.58;59.28
82784;BME280;72520;55.762;37.780;2024-02-26T07:12:34;101078.09;;;-1.51;59.20
82784;BME280;72520;55.762;37.780;2024-02-26T07:15:38;101067.66;;;-1.51;59.66
82784;BME280;72520;55.762;37.780;2024-02-26T07:18:43;101065.91;;;-1.46;59.55
82784;BME280;72520;55.762;37.780;2024-02-26T07:21:45;101060.69;;;-1.46;59.42
82784;BME280;72520;55.762;37.780;2024-02-26T07:24:50;101059.03;;;-1.33;59.21
82784;BME280;72520;55.762;37.780;2024-02-26T07:27:58;101044.25;;;-1.12;58.78
82784;BME280;72520;55.762;37.780;2024-02-26T07:31:03;101047.72;;;-1.17;58.69
82784;BME280;72520;55.762;37.780;2024-02-26T07:34:07;101049.47;;;-1.27;59.52
82784;BME280;72520;55.762;37.780;2024-02-26T07:37:11;101043.41;;;-1.06;58.61
82784;BME280;72520;55.762;37.780;2024-02-26T07:40:16;101049.50;;;-1.07;58.32
82784;BME280;72520;55.762;37.780;2024-02-26T07:43:18;101051.25;;;-1.00;58.45
82784;BME280;72520;55.762;37.780;2024-02-26T07:46:24;101058.22;;;-1.00;58.47
82784;BME280;72520;55.762;37.780;2024-02-26T07:49:29;101053.84;;;-1.06;58.64
82784;BME280;72520;55.762;37.780;2024-02-26T07:52:33;101056.47;;;-0.80;58.63
82784;BME280;72520;55.762;37.780;2024-02-26T07:55:37;101058.25;;;-0.79;58.28
82784;BME280;72520;55.762;37.780;2024-02-26T07:58:39;101053.88;;;-0.70;57.96
82784;BME280;72520;55.762;37.780;2024-02-26T08:01:49;101058.22;;;-0.60;57.65
82784;BME280;72520;55.762;37.780;2024-02-26T08:04:54;101051.25;;;-0.38;57.43
82784;BME280;72520;55.762;37.780;2024-02-26T08:07:58;101061.69;;;-0.26;57.34
82784;BME280;72520;55.762;37.780;2024-02-26T08:11:00;101050.38;;;-0.25;57.03
82784;BME280;72520;55.762;37.780;2024-02-26T08:14:03;101054.72;;;-0.33;57.11
82784;BME280;72520;55.762;37.780;2024-02-26T08:17:07;101051.22;;;-0.29;57.16
82784;BME280;72520;55.762;37.780;2024-02-26T08:20:12;101049.50;;;-0.36;57.43
82784;BME280;72520;55.762;37.780;2024-02-26T08:23:15;101046.00;;;-0.29;57.36
82784;BME280;72520;55.762;37.780;2024-02-26T08:26:17;101046.00;;;-0.21;56.88
82784;BME280;72520;55.762;37.780;2024-02-26T08:29:24;101043.41;;;-0.39;57.57
82784;BME280;72520;55.762;37.780;2024-02-26T08:32:29;101044.28;;;-0.39;57.51
82784;BME280;72520;55.762;37.780;2024-02-26T08:35:35;101034.66;;;-0.26;57.34
82784;BME280;72520;55.762;37.780;2024-02-26T08:38:37;101043.38;;;-0.33;57.03
82784;BME280;72520;55.762;37.780;2024-02-26T08:41:40;101039.03;;;-0.31;57.29
82784;BME280;72520;55.762;37.780;2024-02-26T08:44:42;101037.28;;;-0.28;56.99
82784;BME280;72520;55.762;37.780;2024-02-26T08:47:46;101045.13;;;-0.47;57.10
82784;BME280;72520;55.762;37.780;2024-02-26T08:50:50;101024.22;;;-0.46;57.59
82784;BME280;72520;55.762;37.780;2024-02-26T08:53:55;101023.31;;;-0.24;57.20
82784;BME280;72520;55.762;37.780;2024-02-26T08:57:00;101024.19;;;-0.17;57.22
82784;BME280;72520;55.762;37.780;2024-02-26T09:00:02;101021.56;;;-0.17;57.35
82784;BME280;72520;55.762;37.780;2024-02-26T09:03:07;101043.38;;;-0.23;56.35
82784;BME280;72520;55.762;37.780;2024-02-26T09:06:17;101018.09;;;-0.27;56.90
82784;BME280;72520;55.762;37.780;2024-02-26T09:09:20;101018.97;;;-0.17;56.91
82784;BME280;72520;55.762;37.780;2024-02-26T09:12:25;101024.16;;;-0.10;56.57
82784;BME280;72520;55.762;37.780;2024-02-26T09:15:28;101012.78;;;0.07;56.11
82784;BME280;72520;55.762;37.780;2024-02-26T09:18:33;101030.19;;;0.14;56.47
82784;BME280;72520;55.762;37.780;2024-02-26T09:21:36;101025.84;;;0.00;56.49
82784;BME280;72520;55.762;37.780;2024-02-26T09:24:38;101027.59;;;0.05;56.28
82784;BME280;72520;55.762;37.780;2024-02-26T09:27:40;101025.03;;;-0.05;56.20
82784;BME280;72520;55.762;37.780;2024-02-26T09:30:43;101035.50;;;-0.05;56.33
82784;BME280;72520;55.762;37.780;2024-02-26T09:33:46;101011.94;;;-0.09;57.39
82784;BME280;72520;55.762;37.780;2024-02-26T09:36:48;101021.47;;;0.12;56.45
82784;BME280;72520;55.762;37.780;2024-02-26T09:39:53;101016.28;;;-0.07;56.54
82784;BME280;72520;55.762;37.780;2024-02-26T09:42:59;101027.66;;;-0.08;57.03
82784;BME280;72520;55.762;37.780;2024-02-26T09:46:12;101021.50;;;0.03;56.80
82784;BME280;72520;55.762;37.780;2024-02-26T09:49:18;101022.38;;;0.06;56.55
82784;BME280;72520;55.762;37.780;2024-02-26T09:52:21;101032.88;;;0.00;56.38
82784;BME280;72520;55.762;37.780;2024-02-26T09:55:25;101022.38;;;-0.03;56.84
82784;BME280;72520;55.762;37.780;2024-02-26T09:58:29;101034.56;;;0.04;56.78
82784;BME280;72520;55.762;37.780;2024-02-26T10:01:35;101034.63;;;-0.11;56.58
82784;BME280;72520;55.762;37.780;2024-02-26T10:04:42;101009.31;;;-0.02;56.91
82784;BME280;72520;55.762;37.780;2024-02-26T10:07:44;101008.34;;;0.18;56.71
82784;BME280;72520;55.762;37.780;2024-02-26T10:10:49;101002.19;;;0.34;56.76
82784;BME280;72520;55.762;37.780;2024-02-26T10:13:54;101002.97;;;0.45;56.19
82784;BME280;72520;55.762;37.780;2024-02-26T10:16:57;101009.22;;;0.23;55.81
82784;BME280;72520;55.762;37.780;2024-02-26T10:20:12;101005.72;;;0.24;56.57
82784;BME280;72520;55.762;37.780;2024-02-26T10:23:15;100996.09;;;0.29;56.40
82784;BME280;72520;55.762;37.780;2024-02-26T10:26:17;101002.16;;;0.38;56.34
82784;BME280;72520;55.762;37.780;2024-02-26T10:29:23;100996.09;;;0.29;56.27
82784;BME280;72520;55.762;37.780;2024-02-26T10:32:26;100988.13;;;0.53;55.99
82784;BME280;72520;55.762;37.780;2024-02-26T10:35:30;100989.84;;;0.57;55.61
82784;BME280;72520;55.762;37.780;2024-02-26T10:38:35;101003.81;;;0.56;55.37
82784;BME280;72520;55.762;37.780;2024-02-26T10:41:45;101002.06;;;0.52;55.82
82784;BME280;72520;55.762;37.780;2024-02-26T10:44:48;100996.88;;;0.47;55.93
82784;BME280;72520;55.762;37.780;2024-02-26T10:47:50;100983.78;;;0.46;56.32
82784;BME280;72520;55.762;37.780;2024-02-26T10:50:54;101002.03;;;0.58;55.72
82784;BME280;72520;55.762;37.780;2024-02-26T10:53:58;100984.66;;;0.51;55.75
82784;BME280;72520;55.762;37.780;2024-02-26T10:57:03;100990.66;;;0.62;55.91
82784;BME280;72520;55.762;37.780;2024-02-26T11:00:10;100993.19;;;0.80;55.04
82784;BME280;72520;55.762;37.780;2024-02-26T11:03:17;100985.28;;;0.83;55.39
82784;BME280;72520;55.762;37.780;2024-02-26T11:06:22;100979.16;;;0.86;54.60
82784;BME280;72520;55.762;37.780;2024-02-26T11:09:26;100977.56;;;0.62;55.22
82784;BME280;72520;55.762;37.780;2024-02-26T11:12:35;100973.22;;;0.64;55.41
82784;BME280;72520;55.762;37.780;2024-02-26T11:15:39;100968.00;;;0.61;55.61
82784;BME280;72520;55.762;37.780;2024-02-26T11:18:42;100967.06;;;0.71;55.19
82784;BME280;72520;55.762;37.780;2024-02-26T11:21:46;100974.06;;;0.66;55.54
82784;BME280;72520;55.762;37.780;2024-02-26T11:24:48;100957.38;;;0.76;55.58
82784;BME280;72520;55.762;37.780;2024-02-26T11:27:54;100974.94;;;0.64;55.72
82784;BME280;72520;55.762;37.780;2024-02-26T11:30:59;100955.50;;;0.92;54.95
82784;BME280;72520;55.762;37.780;2024-02-26T11:34:09;100979.91;;;1.00;54.31
82784;BME280;72520;55.762;37.780;2024-02-26T11:37:13;100959.84;;;0.97;54.37
82784;BME280;72520;55.762;37.780;2024-02-26T11:40:17;100945.78;;;1.06;54.92
82784;BME280;72520;55.762;37.780;2024-02-26T11:43:25;100945.13;;;0.78;55.23
82784;BME280;72520;55.762;37.780;2024-02-26T11:46:46;100954.72;;;0.82;55.24
82784;BME280;72520;55.762;37.780;2024-02-26T11:49:51;100963.47;;;0.78;55.13
82784;BME280;72520;55.762;37.780;2024-02-26T11:53:23;100943.25;;;0.97;55.12
82784;BME280;72520;55.762;37.780;2024-02-26T11:56:26;100948.47;;;1.00;55.56
82784;BME280;72520;55.762;37.780;2024-02-26T11:59:38;100944.97;;;1.01;54.95
82784;BME280;72520;55.762;37.780;2024-02-26T12:02:44;100935.91;;;1.35;54.42
82784;BME280;72520;55.762;37.780;2024-02-26T12:05:49;100940.13;;;1.51;54.12
82784;BME280;72520;55.762;37.780;2024-02-26T12:08:55;100929.94;;;1.99;53.80
82784;BME280;72520;55.762;37.780;2024-02-26T12:11:58;100933.69;;;1.78;53.52
82784;BME280;72520;55.762;37.780;2024-02-26T12:15:01;100931.13;;;1.72;53.71
82784;BME280;72520;55.762;37.780;2024-02-26T12:18:05;100928.44;;;1.80;52.71
82784;BME280;72520;55.762;37.780;2024-02-26T12:21:08;100935.47;;;1.76;52.90
82784;BME280;72520;55.762;37.780;2024-02-26T12:24:15;100933.06;;;1.55;53.27
82784;BME280;72520;55.762;37.780;2024-02-26T12:27:17;100925.06;;;1.67;53.49
82784;BME280;72520;55.762;37.780;2024-02-26T12:30:19;100928.47;;;1.77;53.01
82784;BME280;72520;55.762;37.780;2024-02-26T12:33:24;100924.09;;;1.76;53.28
82784;BME280;72520;55.762;37.780;2024-02-26T12:36:30;100933.22;;;1.40;53.25
82784;BME280;72520;55.762;37.780;2024-02-26T12:39:35;100933.19;;;1.43;53.04
82784;BME280;72520;55.762;37.780;2024-02-26T12:42:37;100946.47;;;1.28;53.83
82784;BME280;72520;55.762;37.780;2024-02-26T12:45:41;100944.72;;;1.27;53.98
82784;BME280;72520;55.762;37.780;2024-02-26T12:48:46;100937.97;;;1.01;53.48
82784;BME280;72520;55.762;37.780;2024-02-26T12:51:50;100926.50;;;1.15;54.15
82784;BME280;72520;55.762;37.780;2024-02-26T12:54:54;100921.28;;;1.12;53.28
82784;BME280;72520;55.762;37.780;2024-02-26T12:57:59;100926.59;;;1.02;53.65
82784;BME280;72520;55.762;37.780;2024-02-26T13:01:01;100932.72;;;1.05;52.46
82784;BME280;72520;55.762;37.780;2024-02-26T13:04:04;100930.13;;;1.00;52.12
82784;BME280;72520;55.762;37.780;2024-02-26T13:07:07;100920.56;;;0.94;51.96
82784;BME280;72520;55.762;37.780;2024-02-26T13:10:11;100935.50;;;0.85;52.23
82784;BME280;72520;55.762;37.780;2024-02-26T13:13:17;100933.72;;;0.87;51.85
82784;BME280;72520;55.762;37.780;2024-02-26T13:16:24;100930.28;;;0.80;51.67
82784;BME280;72520;55.762;37.780;2024-02-26T13:19:30;100928.47;;;0.85;51.94
82784;BME280;72520;55.762;37.780;2024-02-26T13:22:32;100925.03;;;0.80;52.48
82784;BME280;72520;55.762;37.780;2024-02-26T13:25:37;100921.44;;;0.92;51.50
82784;BME280;72520;55.762;37.780;2024-02-26T13:28:46;100933.72;;;0.85;50.99
82784;BME280;72520;55.762;37.780;2024-02-26T13:31:53;100927.72;;;0.74;51.08
82784;BME280;72520;55.762;37.780;2024-02-26T13:35:05;100916.31;;;0.78;50.92
82784;BME280;72520;55.762;37.780;2024-02-26T13:38:08;100921.63;;;0.69;50.52
82784;BME280;72520;55.762;37.780;2024-02-26T13:41:13;100925.16;;;0.65;51.04
82784;BME280;72520;55.762;37.780;2024-02-26T13:44:15;100928.72;;;0.55;50.54
82784;BME280;72520;55.762;37.780;2024-02-26T13:47:20;100925.31;;;0.47;49.98
82784;BME280;72520;55.762;37.780;2024-02-26T13:50:24;100924.41;;;0.51;49.91
82784;BME280;72520;55.762;37.780;2024-02-26T13:53:26;100930.50;;;0.53;49.70
82784;BME280;72520;55.762;37.780;2024-02-26T13:56:30;100926.94;;;0.59;48.92
82784;BME280;72520;55.762;37.780;2024-02-26T13:59:47;100930.53;;;0.47;49.38
82784;BME280;72520;55.762;37.780;2024-02-26T14:02:53;100921.91;;;0.33;49.23
82784;BME280;72520;55.762;37.780;2024-02-26T14:05:56;100934.19;;;0.23;49.18
82784;BME280;72520;55.762;37.780;2024-02-26T14:08:59;100937.63;;;0.30;48.85
82784;BME280;72520;55.762;37.780;2024-02-26T14:12:03;100940.25;;;0.25;49.62
82784;BME280;72520;55.762;37.780;2024-02-26T14:15:06;100939.38;;;0.25;49.47
82784;BME280;72520;55.762;37.780;2024-02-26T14:18:11;100951.66;;;0.11;48.65
82784;BME280;72520;55.762;37.780;2024-02-26T14:21:16;100942.09;;;0.08;48.96
82784;BME280;72520;55.762;37.780;2024-02-26T14:24:18;100941.25;;;0.02;49.62
82784;BME280;72520;55.762;37.780;2024-02-26T14:27:23;100944.72;;;0.07;48.97
82784;BME280;72520;55.762;37.780;2024-02-26T14:30:25;100946.44;;;0.08;48.28
82784;BME280;72520;55.762;37.780;2024-02-26T14:33:28;100945.63;;;0.01;49.23
82784;BME280;72520;55.762;37.780;2024-02-26T14:36:32;100948.31;;;-0.19;48.91
82784;BME280;72520;55.762;37.780;2024-02-26T14:39:37;100946.56;;;-0.20;48.64
82784;BME280;72520;55.762;37.780;2024-02-26T14:42:42;100939.63;;;-0.28;49.14
82784;BME280;72520;55.762;37.780;2024-02-26T14:45:44;100953.59;;;-0.31;48.83
82784;BME280;72520;55.762;37.780;2024-02-26T14:48:46;100954.47;;;-0.33;48.42
82784;BME280;72520;55.762;37.780;2024-02-26T14:51:48;100957.97;;;-0.36;48.82
82784;BME280;72520;55.762;37.780;2024-02-26T14:54:51;100971.91;;;-0.35;48.39
82784;BME280;72520;55.762;37.780;2024-02-26T14:57:57;100955.34;;;-0.40;48.87
82784;BME280;72520;55.762;37.780;2024-02-26T15:00:59;100951.88;;;-0.45;48.98
82784;BME280;72520;55.762;37.780;2024-02-26T15:04:01;100960.59;;;-0.39;49.19
82784;BME280;72520;55.762;37.780;2024-02-26T15:07:06;100944.84;;;1.13;45.58
82784;BME280;72520;55.762;37.780;2024-02-26T15:10:11;100952.22;;;0.67;46.58
82784;BME280;72520;55.762;37.780;2024-02-26T15:13:15;100943.72;;;0.33;47.46
82784;BME280;72520;55.762;37.780;2024-02-26T15:16:18;100961.31;;;0.03;48.03
82784;BME280;72520;55.762;37.780;2024-02-26T15:19:21;100955.25;;;-0.10;48.64
82784;BME280;72520;55.762;37.780;2024-02-26T15:22:26;100953.56;;;-0.25;48.05
82784;BME280;72520;55.762;37.780;2024-02-26T15:25:28;100962.34;;;-0.38;48.60
82784;BME280;72520;55.762;37.780;2024-02-26T15:28:32;100949.28;;;-0.45;49.10
82784;BME280;72520;55.762;37.780;2024-02-26T15:31:35;100972.81;;;-0.50;48.98
82784;BME280;72520;55.762;37.780;2024-02-26T15:34:37;100967.63;;;-0.62;49.33
82784;BME280;72520;55.762;37.780;2024-02-26T15:37:39;100971.09;;;-0.69;49.32
82784;BME280;72520;55.762;37.780;2024-02-26T15:40:44;100975.47;;;-0.76;49.48
82784;BME280;72520;55.762;37.780;2024-02-26T15:43:54;100972.00;;;-0.79;49.84
82784;BME280;72520;55.762;37.780;2024-02-26T15:46:56;100971.09;;;-0.81;49.55
82784;BME280;72520;55.762;37.780;2024-02-26T15:49:59;100968.53;;;-0.89;49.83
82784;BME280;72520;55.762;37.780;2024-02-26T15:53:05;100960.66;;;-0.87;49.78
82784;BME280;72520;55.762;37.780;2024-02-26T15:56:07;100969.38;;;-0.88;49.44
82784;BME280;72520;55.762;37.780;2024-02-26T15:59:11;100965.91;;;-0.99;49.76
82784;BME280;72520;55.762;37.780;2024-02-26T16:02:14;100980.69;;;-1.08;49.22